Time;durP1;ratioP1;P1;durP2;ratioP2;P2;SDS_P1;SDS_P2;PMS_P1;PMS_P2;Temp;Humidity;BMP_temperature;BMP_pressure;BME280_temperature;BME280_humidity;BME280_pressure;Samples;Min_cycle;Max_cycle;Signal;HPM_P1;HPM_P2
2022/09/15 00:00:11;;;;;;;7.40;2.60;;;;;;;12.10;93.44;100337.28;4999070;28;20257;-80
2022/09/15 00:02:37;;;;;;;4.53;2.27;;;;;;;12.09;93.45;100337.25;5009300;28;20234;-79
2022/09/15 00:05:03;;;;;;;5.67;2.00;;;;;;;12.13;93.69;100328.72;4998051;28;20227;-78
2022/09/15 00:07:28;;;;;;;6.50;2.60;;;;;;;12.14;93.49;100328.75;4992159;28;20195;-77
2022/09/15 00:09:54;;;;;;;5.17;2.20;;;;;;;12.13;93.58;100333.88;5000335;28;20222;-78
2022/09/15 00:12:19;;;;;;;4.37;2.23;;;;;;;12.18;93.15;100330.47;4997283;28;20844;-79
2022/09/15 00:14:44;;;;;;;7.60;2.70;;;;;;;12.21;93.52;100333.03;5001498;28;20617;-80
2022/09/15 00:17:10;;;;;;;3.90;2.50;;;;;;;12.25;93.44;100333.91;4996917;28;20758;-80
2022/09/15 00:19:35;;;;;;;7.90;2.73;;;;;;;12.23;93.46;100330.50;5000832;28;20242;-79
2022/09/15 00:22:01;;;;;;;6.80;2.80;;;;;;;12.26;93.60;100328.78;5002118;28;20583;-80
2022/09/15 00:24:26;;;;;;;4.33;2.80;;;;;;;12.30;93.65;100322.81;5000426;28;20720;-79
2022/09/15 00:26:52;;;;;;;8.23;2.60;;;;;;;12.29;93.49;100327.94;4999209;28;20183;-79
2022/09/15 00:29:17;;;;;;;7.80;2.97;;;;;;;12.30;93.88;100324.53;4995097;28;20560;-77
2022/09/15 00:31:43;;;;;;;4.50;2.50;;;;;;;12.33;93.51;100324.53;4998492;28;20219;-78
2022/09/15 00:34:10;;;;;;;7.23;2.53;;;;;;;12.35;93.69;100327.97;4996660;28;20656;-77
2022/09/15 00:36:36;;;;;;;7.90;2.70;;;;;;;12.36;93.79;100335.66;4998851;28;20191;-79
2022/09/15 00:39:02;;;;;;;5.70;2.43;;;;;;;12.36;93.90;100339.97;4992388;28;20622;-79
2022/09/15 00:41:28;;;;;;;6.47;2.60;;;;;;;12.38;93.99;100344.25;5011479;28;20214;-79
2022/09/15 00:44:00;;;;;;;7.07;2.73;;;;;;;12.39;93.87;100338.25;4998270;28;20575;-78
2022/09/15 00:46:31;;;;;;;4.07;2.50;;;;;;;12.42;93.98;100347.69;5000229;28;20191;-78
2022/09/15 00:49:00;;;;;;;5.63;2.87;;;;;;;12.45;94.37;100348.53;4996378;28;20696;-79
2022/09/15 00:51:34;;;;;;;3.73;2.20;;;;;;;12.69;95.24;100340.94;4998870;28;20219;-79
2022/09/15 00:54:03;;;;;;;4.17;2.40;;;;;;;12.89;95.60;100328.97;4998749;28;20590;-79
2022/09/15 00:56:32;;;;;;;9.10;2.47;;;;;;;13.05;95.18;100345.31;5001090;28;20196;-78
2022/09/15 00:59:01;;;;;;;5.23;1.97;;;;;;;13.15;95.09;100334.19;4991382;28;20188;-79
2022/09/15 01:01:30;;;;;;;6.47;2.20;;;;;;;13.18;95.07;100336.78;4996933;28;20211;-80
2022/09/15 01:03:56;;;;;;;5.00;2.00;;;;;;;13.24;95.21;100335.88;5001918;28;20198;-79
2022/09/15 01:06:35;;;;;;;4.73;2.30;;;;;;;13.25;95.06;100342.78;4999957;28;20620;-81
2022/09/15 01:09:18;;;;;;;3.90;2.00;;;;;;;13.27;95.00;100339.34;5003987;28;20191;-79
2022/09/15 01:11:43;;;;;;;4.10;2.20;;;;;;;13.34;95.07;100335.03;4993865;28;20295;-79
2022/09/15 01:14:10;;;;;;;3.90;1.80;;;;;;;13.38;94.83;100334.19;5000036;28;20231;-79
2022/09/15 01:16:56;;;;;;;4.87;2.00;;;;;;;13.40;94.43;100327.34;5000550;28;20210;-80
2022/09/15 01:19:43;;;;;;;6.57;2.50;;;;;;;13.46;94.01;100327.31;4948107;28;20744;-79
2022/09/15 01:22:34;;;;;;;4.23;2.03;;;;;;;13.52;94.21;100327.31;5001113;28;20243;-80
2022/09/15 01:25:58;;;;;;;6.07;2.03;;;;;;;13.53;93.95;100317.03;5013229;28;20692;-79
2022/09/15 01:28:48;;;;;;;5.93;1.93;;;;;;;13.60;93.98;100330.75;4954717;28;20765;-79
2022/09/15 01:31:23;;;;;;;5.63;2.00;;;;;;;13.64;94.48;100328.19;4954271;29;20332;-79
2022/09/15 01:34:19;;;;;;;7.33;2.20;;;;;;;13.66;93.75;100329.03;4979046;28;20211;-80
2022/09/15 01:36:55;;;;;;;6.57;2.03;;;;;;;13.72;93.78;100331.56;4983006;28;20251;-80
2022/09/15 01:39:31;;;;;;;5.90;2.40;;;;;;;13.76;94.07;100328.13;5000520;28;20205;-79
2022/09/15 01:42:04;;;;;;;6.83;2.00;;;;;;;13.80;94.62;100326.41;4996260;28;20208;-78
2022/09/15 01:44:36;;;;;;;4.23;2.10;;;;;;;13.80;93.83;100329.84;4995793;28;20183;-79
2022/09/15 01:47:06;;;;;;;4.40;1.90;;;;;;;13.79;94.02;100329.84;5001310;28;20249;-79
2022/09/15 01:49:57;;;;;;;6.87;2.30;;;;;;;13.76;93.55;100335.03;4994272;28;20184;-77
2022/09/15 01:52:23;;;;;;;7.50;2.50;;;;;;;13.74;93.33;100336.72;4995210;28;20237;-79
2022/09/15 01:54:56;;;;;;;3.73;2.10;;;;;;;13.73;93.17;100332.44;4999474;28;20195;-79
2022/09/15 01:57:22;;;;;;;7.83;2.20;;;;;;;13.70;92.96;100337.59;5001102;28;20257;-79
2022/09/15 01:59:53;;;;;;;4.77;2.17;;;;;;;13.70;92.91;100330.72;4996597;28;20226;-79
2022/09/15 02:02:25;;;;;;;5.53;2.37;;;;;;;13.69;92.88;100334.19;5013871;28;20227;-78
2022/09/15 02:05:07;;;;;;;4.43;2.50;;;;;;;13.65;92.94;100329.00;4999865;28;20632;-81
2022/09/15 02:07:47;;;;;;;8.03;2.37;;;;;;;13.62;93.15;100327.31;4997485;28;20188;-79
2022/09/15 02:10:25;;;;;;;5.17;2.23;;;;;;;13.62;92.84;100332.44;4998349;28;20191;-77
2022/09/15 02:13:10;;;;;;;5.20;2.47;;;;;;;13.62;92.92;100335.03;4993629;28;20249;-79
2022/09/15 02:15:57;;;;;;;7.90;2.60;;;;;;;13.61;93.15;100335.88;5018198;28;20194;-79
2022/09/15 02:18:44;;;;;;;4.00;2.60;;;;;;;13.57;93.41;100341.88;5003067;28;20538;-79
2022/09/15 02:21:17;;;;;;;5.07;2.60;;;;;;;13.55;93.61;100340.19;4997947;28;20286;-79
2022/09/15 02:23:52;;;;;;;4.63;2.77;;;;;;;13.54;94.16;100341.03;5017552;28;20200;-80
2022/09/15 02:26:24;;;;;;;6.77;2.97;;;;;;;13.53;94.09;100345.31;4998972;28;20218;-80
2022/09/15 02:28:52;;;;;;;4.50;2.63;;;;;;;13.53;93.92;100342.75;5019792;28;20195;-79
2022/09/15 02:31:22;;;;;;;7.63;2.67;;;;;;;13.54;94.26;100336.75;4992441;28;20316;-79
2022/09/15 02:33:58;;;;;;;6.37;2.50;;;;;;;13.52;94.77;100338.47;4999960;28;20203;-80
2022/09/15 02:36:25;;;;;;;7.73;2.97;;;;;;;13.51;94.90;100336.75;5002660;28;20209;-79
2022/09/15 02:38:59;;;;;;;8.70;3.10;;;;;;;13.48;95.50;100325.63;5000098;28;20204;-79
2022/09/15 02:41:26;;;;;;;6.77;3.33;;;;;;;13.45;95.97;100336.75;4998714;28;20677;-80
2022/09/15 02:43:51;;;;;;;4.93;2.80;;;;;;;13.48;96.23;100335.91;4997120;28;20226;-80
2022/09/15 02:46:21;;;;;;;5.20;3.10;;;;;;;13.46;96.34;100328.19;5004271;28;20266;-79
2022/09/15 02:48:47;;;;;;;8.03;3.00;;;;;;;13.46;96.72;100330.78;5006373;28;20203;-79
2022/09/15 02:51:13;;;;;;;5.03;3.30;;;;;;;13.44;96.81;100329.06;5008686;28;20226;-80
2022/09/15 02:53:39;;;;;;;5.13;2.97;;;;;;;13.46;96.98;100324.75;5000589;28;20194;-80
2022/09/15 02:56:05;;;;;;;7.80;2.87;;;;;;;13.46;97.09;100322.19;4986192;28;20203;-80
2022/09/15 02:58:32;;;;;;;7.40;3.20;;;;;;;13.47;97.01;100332.47;5002148;28;20207;-80
2022/09/15 03:01:04;;;;;;;6.23;2.80;;;;;;;13.50;97.25;100331.63;5005980;28;20222;-80
2022/09/15 03:03:31;;;;;;;10.03;3.13;;;;;;;13.52;97.02;100332.44;4998759;28;20199;-79
2022/09/15 03:06:15;;;;;;;7.17;3.07;;;;;;;13.55;97.11;100325.63;5005438;28;20226;-80
2022/09/15 03:08:49;;;;;;;6.77;2.60;;;;;;;13.64;96.78;100335.91;5003716;28;20710;-79
2022/09/15 03:11:16;;;;;;;7.47;2.40;;;;;;;13.67;97.27;100341.03;4999612;28;20219;-79
2022/09/15 03:13:42;;;;;;;9.00;3.00;;;;;;;13.71;97.69;100341.91;4989543;28;20195;-79
2022/09/15 03:16:09;;;;;;;4.43;2.67;;;;;;;13.74;97.58;100345.31;5002944;28;20196;-79
2022/09/15 03:18:36;;;;;;;7.70;2.40;;;;;;;13.75;97.42;100341.88;5004546;28;20187;-79
2022/09/15 03:21:03;;;;;;;5.97;2.40;;;;;;;13.74;97.34;100342.75;5002295;28;20199;-79
2022/09/15 03:23:28;;;;;;;3.77;2.33;;;;;;;13.75;97.48;100338.44;5001903;28;20196;-79
2022/09/15 03:25:54;;;;;;;5.30;2.50;;;;;;;13.76;96.92;100335.03;4998003;28;20198;-78
2022/09/15 03:28:19;;;;;;;4.73;2.70;;;;;;;13.75;97.68;100334.16;5003401;28;20207;-78
2022/09/15 03:30:45;;;;;;;4.37;2.30;;;;;;;13.76;97.07;100333.28;5002036;28;20281;-78
2022/09/15 03:33:11;;;;;;;8.40;2.37;;;;;;;13.78;96.71;100341.88;5006918;28;20247;-80
2022/09/15 03:35:37;;;;;;;5.87;2.40;;;;;;;13.79;97.04;100338.44;5014587;28;20196;-78
2022/09/15 03:38:03;;;;;;;6.83;2.43;;;;;;;13.81;96.65;100341.00;5000971;28;20191;-79
2022/09/15 03:40:28;;;;;;;3.93;2.10;;;;;;;13.83;97.02;100342.72;5002785;28;20198;-79
2022/09/15 03:42:54;;;;;;;6.90;2.47;;;;;;;13.83;96.89;100341.84;5003587;28;20293;-79
2022/09/15 03:45:19;;;;;;;7.50;2.23;;;;;;;13.84;96.96;100341.84;5001837;28;20194;-79
2022/09/15 03:47:44;;;;;;;6.17;2.83;;;;;;;13.86;96.38;100339.28;4995390;28;20260;-79
2022/09/15 03:50:10;;;;;;;4.93;1.93;;;;;;;13.86;95.96;100339.28;4999359;28;20262;-79
2022/09/15 03:52:35;;;;;;;6.27;2.20;;;;;;;13.87;96.29;100333.28;4984987;28;20640;-78
2022/09/15 03:55:01;;;;;;;6.70;2.53;;;;;;;13.87;96.73;100330.69;4998893;28;20219;-80
2022/09/15 03:57:26;;;;;;;7.90;2.53;;;;;;;13.87;96.14;100334.13;4999823;28;20227;-80
2022/09/15 03:59:51;;;;;;;6.60;2.10;;;;;;;13.88;96.21;100340.13;4985192;28;20192;-78
2022/09/15 04:02:18;;;;;;;5.87;2.03;;;;;;;13.84;96.90;100344.44;4990896;28;20199;-80
2022/09/15 04:04:43;;;;;;;8.33;2.30;;;;;;;13.79;96.36;100343.59;4994412;28;20675;-79
2022/09/15 04:07:08;;;;;;;4.00;2.20;;;;;;;13.78;96.73;100341.88;4996732;28;20184;-78
2022/09/15 04:09:36;;;;;;;5.87;2.17;;;;;;;13.77;96.69;100350.44;4996793;28;20664;-78
2022/09/15 04:12:05;;;;;;;9.87;2.60;;;;;;;13.81;96.96;100359.88;5007421;28;20329;-80
2022/09/15 04:14:31;;;;;;;4.83;2.00;;;;;;;13.85;97.38;100355.59;4994077;28;20226;-81
2022/09/15 04:16:56;;;;;;;6.20;2.07;;;;;;;13.82;97.90;100359.03;4992694;28;20203;-80
2022/09/15 04:19:21;;;;;;;5.33;2.23;;;;;;;13.83;99.06;100347.00;4995394;28;20184;-80
2022/09/15 04:21:47;;;;;;;7.40;2.40;;;;;;;13.78;99.11;100348.72;4995929;28;20214;-79
2022/09/15 04:24:13;;;;;;;6.07;2.30;;;;;;;13.79;98.95;100338.44;4990259;28;20192;-81
2022/09/15 04:26:38;;;;;;;6.30;2.30;;;;;;;13.76;99.62;100337.59;4996802;28;20192;-78
2022/09/15 04:29:10;;;;;;;5.50;2.23;;;;;;;13.74;99.53;100329.00;4986900;28;20211;-81
2022/09/15 04:31:35;;;;;;;3.87;1.80;;;;;;;13.69;99.78;100321.31;5000512;28;20294;-80
2022/09/15 04:34:01;;;;;;;6.30;2.67;;;;;;;13.65;100.00;100335.03;4995822;28;20230;-79
2022/09/15 04:36:27;;;;;;;6.90;2.60;;;;;;;13.60;100.00;100331.59;4999394;28;20203;-80
2022/09/15 04:38:54;;;;;;;5.93;2.87;;;;;;;13.56;100.00;100329.91;4995879;28;20192;-81
2022/09/15 04:41:20;;;;;;;7.10;2.90;;;;;;;13.54;100.00;100326.44;5000424;28;20215;-80
2022/09/15 04:43:46;;;;;;;5.23;2.63;;;;;;;13.54;100.00;100330.75;5000109;28;20192;-79
2022/09/15 04:46:12;;;;;;;4.93;2.67;;;;;;;13.53;100.00;100331.63;5001031;28;20193;-80
2022/09/15 04:48:38;;;;;;;10.70;3.50;;;;;;;13.53;100.00;100331.63;5003037;28;20246;-80
2022/09/15 04:51:06;;;;;;;5.60;3.17;;;;;;;13.52;100.00;100328.19;4980400;28;20215;-79
2022/09/15 04:53:32;;;;;;;6.63;3.17;;;;;;;13.50;100.00;100329.91;4998403;28;20212;-80
2022/09/15 04:56:03;;;;;;;8.00;3.10;;;;;;;13.48;100.00;100338.50;5002260;28;20203;-79
2022/09/15 04:58:29;;;;;;;5.23;2.87;;;;;;;13.47;100.00;100332.47;4995909;28;20609;-80
2022/09/15 05:00:54;;;;;;;8.00;2.77;;;;;;;13.47;100.00;100329.91;5003170;28;20194;-80
2022/09/15 05:03:19;;;;;;;7.00;3.60;;;;;;;13.46;100.00;100327.31;5000675;28;20195;-80
2022/09/15 05:05:46;;;;;;;9.43;3.50;;;;;;;13.47;100.00;100323.88;4984118;28;20254;-79
2022/09/15 05:08:12;;;;;;;8.17;4.00;;;;;;;13.46;100.00;100322.19;4997401;28;20537;-77
2022/09/15 05:10:37;;;;;;;5.30;3.50;;;;;;;13.45;100.00;100323.03;4985695;28;20215;-79
2022/09/15 05:13:03;;;;;;;7.07;3.80;;;;;;;13.47;100.00;100329.03;4985541;28;20257;-79
2022/09/15 05:15:28;;;;;;;6.97;3.93;;;;;;;13.47;100.00;100332.47;5005647;28;20266;-79
2022/09/15 05:17:54;;;;;;;6.43;4.10;;;;;;;13.49;100.00;100329.91;5000384;28;20203;-80
2022/09/15 05:20:19;;;;;;;10.03;4.10;;;;;;;13.51;100.00;100335.88;5003593;28;20211;-79
2022/09/15 05:22:45;;;;;;;5.27;4.60;;;;;;;13.51;100.00;100326.47;4998918;28;20645;-79
2022/09/15 05:25:10;;;;;;;12.40;4.50;;;;;;;13.54;100.00;100330.75;5001706;28;20273;-80
2022/09/15 05:27:38;;;;;;;6.60;4.50;;;;;;;13.56;100.00;100326.44;5001195;28;20718;-81
2022/09/15 05:30:04;;;;;;;6.87;4.40;;;;;;;13.56;100.00;100329.91;5001669;28;20188;-80
2022/09/15 05:32:30;;;;;;;7.33;3.63;;;;;;;13.57;100.00;100333.31;5005265;28;20230;-80
2022/09/15 05:34:55;;;;;;;9.43;4.10;;;;;;;13.62;100.00;100329.03;4999509;28;20199;-82
2022/09/15 05:37:21;;;;;;;6.17;3.47;;;;;;;13.62;100.00;100319.59;5005732;28;20235;-80
2022/09/15 05:39:46;;;;;;;13.47;4.10;;;;;;;13.64;100.00;100319.59;4999337;28;20203;-80
2022/09/15 05:42:12;;;;;;;11.07;3.50;;;;;;;13.59;100.00;100319.63;5005439;28;20299;-81
2022/09/15 05:44:37;;;;;;;7.10;3.50;;;;;;;13.62;100.00;100319.59;5002787;28;20282;-79
2022/09/15 05:47:03;;;;;;;6.20;3.40;;;;;;;13.66;100.00;100320.44;5000233;28;20278;-80
2022/09/15 05:49:29;;;;;;;6.10;2.70;;;;;;;13.66;100.00;100323.88;5002713;28;20192;-82
2022/09/15 05:51:54;;;;;;;6.93;2.70;;;;;;;13.67;99.95;100328.16;5002803;28;20230;-81
2022/09/15 05:54:20;;;;;;;9.53;2.90;;;;;;;13.74;100.00;100321.28;5000415;28;20724;-80
2022/09/15 05:56:45;;;;;;;6.07;2.70;;;;;;;13.76;99.60;100323.00;5001306;28;20288;-79
2022/09/15 05:59:11;;;;;;;3.37;2.13;;;;;;;13.87;99.08;100325.56;4985030;28;20207;-78
2022/09/15 06:01:36;;;;;;;7.83;2.40;;;;;;;13.89;98.56;100327.25;4999551;28;20211;-79
2022/09/15 06:04:02;;;;;;;6.83;2.70;;;;;;;13.93;98.56;100325.53;5006477;28;20194;-78
2022/09/15 06:06:30;;;;;;;7.80;3.00;;;;;;;14.11;98.74;100322.91;4997834;28;20204;-80
2022/09/15 06:08:56;;;;;;;9.20;2.93;;;;;;;14.10;97.63;100316.91;5003997;28;20196;-79
2022/09/15 06:11:25;;;;;;;8.37;2.60;;;;;;;14.08;98.05;100320.34;4994503;28;20218;-79
2022/09/15 06:13:50;;;;;;;5.00;2.30;;;;;;;13.99;98.67;100331.53;5007514;28;20215;-79
2022/09/15 06:16:21;;;;;;;7.93;2.47;;;;;;;13.97;98.28;100333.25;4998581;28;20191;-80
2022/09/15 06:18:48;;;;;;;7.47;2.33;;;;;;;13.99;98.34;100340.97;5004067;28;20211;-78
2022/09/15 06:21:20;;;;;;;11.73;2.77;;;;;;;14.01;98.34;100347.84;4998045;28;20590;-80
2022/09/15 06:23:46;;;;;;;7.87;2.93;;;;;;;14.00;97.53;100343.53;5002797;28;20195;-79
2022/09/15 06:26:16;;;;;;;7.40;2.67;;;;;;;14.02;97.65;100348.69;5007496;28;20191;-80
2022/09/15 06:28:48;;;;;;;10.03;3.43;;;;;;;14.02;97.88;100333.22;4988902;28;20203;-80
2022/09/15 06:31:14;;;;;;;6.57;2.60;;;;;;;14.01;97.31;100332.38;5002419;28;20215;-79
2022/09/15 06:33:45;;;;;;;7.33;2.93;;;;;;;14.06;96.81;100334.94;5004651;28;20195;-78
2022/09/15 06:36:12;;;;;;;7.87;2.77;;;;;;;14.44;96.21;100327.94;5003374;28;20198;-80
2022/09/15 06:38:39;;;;;;;8.77;2.27;;;;;;;14.92;94.68;100327.69;4987464;28;20246;-79
2022/09/15 06:41:05;;;;;;;6.77;3.03;;;;;;;14.97;93.01;100334.50;5006559;28;20287;-79
2022/09/15 06:43:31;;;;;;;5.37;2.40;;;;;;;14.92;93.20;100325.94;4997486;28;20234;-83
2022/09/15 06:46:30;;;;;;;9.40;2.40;;;;;;;14.92;93.01;100338.00;4997448;28;20249;-78
2022/09/15 06:48:55;;;;;;;7.10;2.63;;;;;;;15.51;90.99;100328.97;4985345;28;20281;-79
2022/09/15 06:51:23;;;;;;;6.10;2.10;;;;;;;15.47;89.53;100329.88;4999739;28;20307;-79
2022/09/15 06:53:49;;;;;;;6.27;1.80;;;;;;;15.35;89.16;100336.84;5002405;28;20236;-78
2022/09/15 06:56:21;;;;;;;5.67;2.30;;;;;;;15.46;89.14;100335.91;5002298;28;20302;-77
2022/09/15 06:58:49;;;;;;;6.83;1.90;;;;;;;15.66;87.90;100346.06;5004235;28;20195;-78
2022/09/15 07:01:21;;;;;;;4.57;1.80;;;;;;;15.87;85.02;100345.84;5001704;28;20787;-79
2022/09/15 07:03:46;;;;;;;7.77;2.53;;;;;;;15.73;86.90;100345.97;4996688;28;20234;-78
2022/09/15 07:06:12;;;;;;;4.33;1.43;;;;;;;15.48;87.34;100349.63;4997654;28;20219;-78
2022/09/15 07:08:38;;;;;;;5.87;1.97;;;;;;;15.47;87.81;100357.41;5003278;28;20188;-78
2022/09/15 07:11:04;;;;;;;9.00;2.27;;;;;;;15.26;88.85;100365.28;5002328;28;20645;-79
2022/09/15 07:13:30;;;;;;;12.23;2.17;;;;;;;15.22;88.62;100369.59;5000505;28;20184;-78
2022/09/15 07:15:57;;;;;;;4.53;2.07;;;;;;;15.27;88.91;100366.97;4987723;28;20486;-78
2022/09/15 07:18:23;;;;;;;7.63;1.80;;;;;;;15.31;88.84;100364.38;4999481;28;20246;-77
2022/09/15 07:20:49;;;;;;;4.77;1.53;;;;;;;15.34;88.27;100368.69;4998392;28;20188;-78
2022/09/15 07:23:15;;;;;;;6.60;1.73;;;;;;;15.32;87.42;100368.66;4996942;28;20204;-78
2022/09/15 07:25:42;;;;;;;6.43;1.70;;;;;;;15.35;86.54;100376.44;4979960;28;20228;-78
2022/09/15 07:28:12;;;;;;;6.53;1.77;;;;;;;15.46;85.74;100371.16;4998476;28;20255;-78
2022/09/15 07:30:41;;;;;;;6.93;1.70;;;;;;;15.66;85.18;100371.88;4997469;28;20215;-80
2022/09/15 07:33:07;;;;;;;5.57;1.40;;;;;;;16.11;83.69;100368.84;4990419;28;20686;-80
2022/09/15 07:35:33;;;;;;;5.77;1.20;;;;;;;16.26;82.83;100374.69;4990834;28;20219;-79
2022/09/15 07:38:02;;;;;;;6.13;1.57;;;;;;;16.36;82.76;100375.44;4994108;28;20200;-80
2022/09/15 07:40:27;;;;;;;6.67;1.30;;;;;;;16.79;80.65;100371.47;5001574;28;20209;-78
2022/09/15 07:42:53;;;;;;;5.40;1.67;;;;;;;17.14;79.11;100375.28;5001581;28;20700;-81
2022/09/15 07:45:18;;;;;;;8.87;1.53;;;;;;;17.49;78.01;100374.75;5005026;28;20201;-79
2022/09/15 07:47:44;;;;;;;7.00;1.60;;;;;;;17.02;78.20;100372.88;4997996;28;20227;-79
2022/09/15 07:50:10;;;;;;;5.93;1.50;;;;;;;17.67;75.86;100364.09;4997562;28;20202;-79
2022/09/15 07:52:35;;;;;;;3.63;1.30;;;;;;;18.56;74.31;100371.09;5001701;28;20281;-78
2022/09/15 07:55:00;;;;;;;5.73;1.30;;;;;;;18.99;70.65;100369.28;4999405;28;20589;-79
2022/09/15 07:57:26;;;;;;;7.30;1.30;;;;;;;18.57;70.17;100365.00;5020907;28;20277;-78
2022/09/15 07:59:51;;;;;;;6.27;1.40;;;;;;;18.03;73.79;100376.41;5004028;28;20196;-80
2022/09/15 08:02:19;;;;;;;3.63;1.20;;;;;;;17.55;75.31;100372.94;5004480;28;20222;-79
2022/09/15 08:04:45;;;;;;;6.00;1.53;;;;;;;17.30;75.88;100386.25;5001442;28;20192;-79
2022/09/15 08:07:11;;;;;;;6.87;1.63;;;;;;;17.20;77.11;100385.56;5004916;28;20195;-81
2022/09/15 08:09:38;;;;;;;10.23;1.83;;;;;;;17.02;77.85;100385.81;5002142;28;20892;-80
2022/09/15 08:12:05;;;;;;;5.13;1.40;;;;;;;16.86;77.84;100388.63;5003256;28;20215;-80
2022/09/15 08:14:31;;;;;;;6.50;1.40;;;;;;;16.58;79.05;100393.28;5004439;28;20198;-80
2022/09/15 08:16:59;;;;;;;9.23;1.60;;;;;;;16.64;79.41;100393.25;5000232;28;20383;-80
2022/09/15 08:19:29;;;;;;;6.43;1.63;;;;;;;16.84;78.43;100392.97;5006051;28;20227;-79
2022/09/15 08:21:54;;;;;;;6.70;1.30;;;;;;;17.15;77.11;100389.06;4998988;28;20207;-79
2022/09/15 08:24:21;;;;;;;5.43;1.50;;;;;;;17.30;76.76;100392.31;5005292;28;20194;-79
2022/09/15 08:26:47;;;;;;;6.07;1.87;;;;;;;18.11;74.84;100388.38;5005678;28;20215;-78
2022/09/15 08:29:13;;;;;;;6.00;1.80;;;;;;;18.66;72.83;100386.41;5005947;28;20238;-78
2022/09/15 08:31:39;;;;;;;5.47;1.40;;;;;;;18.86;71.22;100380.81;5006525;28;20226;-78
2022/09/15 08:34:05;;;;;;;6.10;1.50;;;;;;;18.72;70.02;100381.13;5004112;28;20192;-78
2022/09/15 08:36:34;;;;;;;4.73;1.63;;;;;;;18.81;69.56;100383.53;4989382;28;20196;-78
2022/09/15 08:38:59;;;;;;;5.43;1.40;;;;;;;19.31;68.33;100387.59;4985304;28;20191;-80
2022/09/15 08:41:28;;;;;;;3.93;1.20;;;;;;;19.68;67.34;100391.91;5007885;28;20943;-78
2022/09/15 08:44:11;;;;;;;4.53;1.20;;;;;;;19.49;66.37;100393.19;5001404;28;20204;-79
2022/09/15 08:46:51;;;;;;;4.63;1.43;;;;;;;20.03;65.00;100389.22;5001746;28;20321;-80
2022/09/15 08:49:32;;;;;;;5.17;1.37;;;;;;;20.16;62.50;100384.59;4996119;28;20190;-78
2022/09/15 08:52:03;;;;;;;5.53;1.10;;;;;;;19.62;62.85;100398.97;5018240;28;20220;-79
2022/09/15 08:54:31;;;;;;;5.83;1.47;;;;;;;20.03;62.56;100393.59;5007638;28;20187;-79
2022/09/15 08:56:57;;;;;;;3.87;1.40;;;;;;;20.24;61.82;100393.91;5000968;28;20204;-77
2022/09/15 08:59:33;;;;;;;5.63;1.53;;;;;;;20.38;61.21;100401.31;4999906;28;21131;-79
2022/09/15 09:02:10;;;;;;;4.93;1.50;;;;;;;20.63;60.09;100405.78;4997224;28;20226;-79
2022/09/15 09:05:14;;;;;;;5.07;1.53;;;;;;;20.78;59.49;100399.31;5021512;28;20567;-78
2022/09/15 09:07:55;;;;;;;7.95;1.63;;;;;;;21.51;56.60;100393.59;4984440;28;20198;-78
2022/09/15 09:10:54;;;;;;;3.13;1.10;;;;;;;21.41;55.85;100397.34;5000921;28;20740;-79
2022/09/15 09:13:29;;;;;;;4.72;1.45;;;;;;;22.15;53.56;100391.38;5006065;28;20202;-79
2022/09/15 09:16:33;;;;;;;6.53;2.00;;;;;;;21.97;52.47;100401.63;5000216;28;20240;-78
2022/09/15 09:19:16;;;;;;;5.63;1.60;;;;;;;22.94;51.33;100394.59;5002183;28;20199;-79
2022/09/15 09:21:46;;;;;;;7.05;2.10;;;;;;;23.65;49.22;100391.75;5004137;28;20207;-80
2022/09/15 09:26:40;;;;;;;7.32;2.55;;;;;;;26.41;42.03;100370.78;4999474;28;20229;-77
2022/09/15 09:29:31;;;;;;;7.80;1.85;;;;;;;29.43;35.82;100357.00;5006332;28;20199;-77
2022/09/15 09:31:58;;;;;;;4.47;1.73;;;;;;;31.87;32.10;100358.09;5007483;28;20226;-76
2022/09/15 09:35:04;;;;;;;4.97;1.85;;;;;;;33.40;29.80;100351.09;5008042;28;20551;-76
2022/09/15 09:37:32;;;;;;;6.38;1.75;;;;;;;34.67;28.00;100333.88;4974633;28;20763;-76
2022/09/15 09:39:57;;;;;;;4.90;1.73;;;;;;;34.23;27.53;100343.06;5006642;28;20194;-76
2022/09/15 09:42:29;;;;;;;5.40;1.75;;;;;;;34.06;28.48;100346.31;5008243;28;20293;-76
2022/09/15 09:44:55;;;;;;;6.60;2.75;;;;;;;31.21;31.69;100345.41;5023970;28;20325;-76
2022/09/15 09:47:26;;;;;;;6.50;2.40;;;;;;;32.97;28.95;100344.94;5006575;28;20273;-76
2022/09/15 09:49:52;;;;;;;6.55;1.80;;;;;;;31.60;30.50;100341.59;5006803;28;20206;-75
2022/09/15 09:52:37;;;;;;;4.00;1.50;;;;;;;26.08;39.10;100362.91;5007441;28;20211;-77
2022/09/15 09:55:23;;;;;;;5.22;2.00;;;;;;;29.15;35.35;100346.56;5008845;28;20207;-77
2022/09/15 09:57:48;;;;;;;3.50;1.58;;;;;;;31.68;31.80;100333.94;5003357;28;20566;-77
2022/09/15 10:00:38;;;;;;;5.13;2.20;;;;;;;30.00;33.79;100329.38;5022119;28;20198;-77
2022/09/15 10:03:19;;;;;;;4.90;2.10;;;;;;;26.26;39.11;100351.47;5003147;28;20186;-77
2022/09/15 10:06:00;;;;;;;7.05;3.75;;;;;;;24.53;43.40;100350.41;5005177;28;20468;-76
2022/09/15 10:08:26;;;;;;;19.38;9.05;;;;;;;24.04;45.56;100351.72;5005127;28;20285;-76
2022/09/15 10:10:53;;;;;;;5.95;2.63;;;;;;;23.25;46.09;100360.31;5020483;28;20736;-76
2022/09/15 10:13:20;;;;;;;7.17;2.00;;;;;;;22.22;50.98;100384.19;5005684;28;20187;-76
2022/09/15 10:15:52;;;;;;;4.67;1.60;;;;;;;20.76;57.17;100417.56;5002649;28;20207;-77
2022/09/15 10:18:31;;;;;;;9.47;2.10;;;;;;;19.65;66.57;100438.72;5009898;28;20197;-76
2022/09/15 10:20:58;;;;;;;6.97;2.20;;;;;;;18.95;70.42;100435.97;5007145;28;20644;-76
2022/09/15 10:23:32;;;;;;;8.87;2.10;;;;;;;18.51;73.16;100441.19;5007721;28;20189;-77
2022/09/15 10:26:33;;;;;;;7.33;1.77;;;;;;;18.54;71.38;100433.38;4997662;28;20219;-76
2022/09/15 10:29:25;;;;;;;5.07;1.97;;;;;;;18.58;71.50;100422.06;5016250;28;20199;-76
2022/09/15 10:31:50;;;;;;;6.27;1.90;;;;;;;18.76;71.98;100415.63;5002732;28;20230;-76
2022/09/15 10:34:30;;;;;;;2.93;1.23;;;;;;;19.25;69.55;100409.38;5005528;28;20253;-76
2022/09/15 10:37:14;;;;;;;3.90;1.00;;;;;;;20.84;64.21;100412.13;5005177;28;20203;-76
2022/09/15 10:39:50;;;;;;;2.90;1.00;;;;;;;23.05;54.08;100391.56;4997884;28;20248;-76
2022/09/15 10:42:28;;;;;;;3.42;0.80;;;;;;;24.31;54.45;100389.78;5004023;28;20187;-77
2022/09/15 10:44:59;;;;;;;3.53;1.03;;;;;;;21.39;59.00;100401.78;5004835;28;20215;-76
2022/09/15 10:47:46;;;;;;;2.47;1.30;;;;;;;20.37;63.43;100394.41;5002663;28;20564;-77
2022/09/15 10:50:28;;;;;;;4.43;1.40;;;;;;;20.10;64.73;100401.22;5006858;28;20596;-77
2022/09/15 10:53:18;;;;;;;5.40;1.40;;;;;;;20.03;65.69;100397.03;4991485;28;20209;-77
2022/09/15 10:55:58;;;;;;;4.67;1.43;;;;;;;21.11;62.12;100391.38;4999591;28;20213;-76
2022/09/15 10:59:02;;;;;;;3.30;1.30;;;;;;;26.15;48.12;100366.06;5000883;28;20680;-77
2022/09/15 11:01:28;;;;;;;4.70;1.40;;;;;;;28.79;42.64;100362.06;4994666;28;20242;-77
2022/09/15 11:04:10;;;;;;;1.98;1.30;;;;;;;28.07;44.40;100360.44;5004096;28;20695;-77
2022/09/15 11:06:54;;;;;;;4.97;1.80;;;;;;;25.77;48.05;100364.50;5008588;28;20242;-76
2022/09/15 11:09:26;;;;;;;2.60;1.30;;;;;;;25.00;48.44;100365.66;5013267;28;20274;-77
2022/09/15 11:12:01;;;;;;;2.10;1.42;;;;;;;24.95;49.36;100366.81;4995929;28;20217;-77
2022/09/15 11:14:47;;;;;;;4.75;1.42;;;;;;;23.99;52.62;100358.91;5009943;28;20593;-77
2022/09/15 11:17:34;;;;;;;7.55;1.90;;;;;;;22.08;55.54;100373.41;5010693;28;20183;-76
2022/09/15 11:20:20;;;;;;;5.43;1.27;;;;;;;21.39;58.41;100394.81;5005409;28;20205;-76
2022/09/15 11:23:04;;;;;;;4.53;1.27;;;;;;;21.01;60.78;100383.88;5009697;28;20187;-78
2022/09/15 11:25:40;;;;;;;4.77;1.40;;;;;;;22.58;55.81;100371.59;5027634;28;20230;-78
2022/09/15 11:28:25;;;;;;;7.18;1.95;;;;;;;23.26;54.09;100375.09;5010637;28;20183;-77
2022/09/15 11:30:59;;;;;;;8.07;1.70;;;;;;;22.37;54.29;100378.44;4991961;28;20242;-77
2022/09/15 11:33:35;;;;;;;3.93;1.13;;;;;;;22.56;52.06;100371.66;5012087;28;20187;-77
2022/09/15 11:36:24;;;;;;;3.87;1.23;;;;;;;23.53;51.88;100373.97;5011278;28;20218;-77
2022/09/15 11:39:18;;;;;;;3.50;1.20;;;;;;;23.44;49.86;100380.41;5024357;28;20192;-78
2022/09/15 11:41:56;;;;;;;4.83;1.30;;;;;;;23.10;52.04;100385.25;5025772;28;20245;-77
2022/09/15 11:44:38;;;;;;;2.77;1.10;;;;;;;22.38;54.20;100393.16;5024912;28;20268;-78